Flight Track Log - Related Links

Times and Time Zones

All times are in EDT time to prevent confusion due to time zone crossing. See the CTL16 flight status page for this flight to view local times or setup timezone preferences in your user account.

Time Position Orientation Groundspeed Altitude Reporting Facility
EDT Latitude Longitude Course Direction KTS MPH feet Rate Location/Type
Wed 08:28:04 PM 39.3500 -84.4667 49° Northeast 110 127 1,600  Level Cincinnati TRACON
Wed 08:29:04 PM 39.3833 -84.4167 49° Northeast 152 175 2,200 540 Climbing Cincinnati TRACON
Wed 08:29:44 PM 39.4039 -84.4003 32° Northeast 151 174 2,500 369 Climbing Indianapolis Center
Wed 08:30:09 PM 39.4119 -84.3869 52° Northeast 164 189 2,600 625 Climbing Indianapolis Center
Wed 08:30:32 PM 39.4253 -84.3681 48° Northeast 157 181 3,000 393 Climbing Indianapolis Center
Wed 08:31:10 PM 39.4403 -84.3458 49° Northeast 155 178 3,000  Level Indianapolis Center
Wed 08:31:33 PM 39.4561 -84.3264 43° Northeast 159 183 3,000  Level Indianapolis Center
Wed 08:32:12 PM 39.4717 -84.3011 51° Northeast 160 184 3,000  Level Indianapolis Center
Wed 08:32:34 PM 39.4889 -84.2819 41° Northeast 165 190 3,000 -98 Level Indianapolis Center
Wed 08:33:13 PM 39.5056 -84.2606 45° Northeast 163 188 2,900 -119 Descending Indianapolis Center
Wed 08:34:15 PM 39.5458 -84.2183 39° Northeast 164 189 2,800 -32 Descending Indianapolis Center
Wed 08:36:18 PM 39.6086 -84.1633 34° Northeast 139 160 2,800 84 Level Indianapolis Center
Wed 08:36:38 PM 39.6167 -84.1528 45° Northeast 151 174 3,000 590 Climbing Indianapolis Center
Wed 08:37:19 PM 39.6306 -84.1197 61° Northeast 145 167 3,400 583 Climbing Indianapolis Center
Wed 08:38:21 PM 39.6317 -84.0636 89° East 152 175 4,000 585 Climbing Indianapolis Center
Wed 08:39:22 PM 39.6350 -84.0094 85° East 150 173 4,600 469 Climbing Indianapolis Center
Wed 08:40:29 PM 39.6450 -83.9478 78° East 161 185 5,000 439 Climbing Indianapolis Center
Wed 08:41:25 PM 39.6742 -83.9194 37° Northeast 159 183 5,500 508 Climbing Indianapolis Center
Wed 08:42:27 PM 39.7058 -83.8806 43° Northeast 157 181 6,000 537 Climbing Indianapolis Center
Wed 08:43:28 PM 39.7364 -83.8400 46° Northeast 156 180 6,600 488 Climbing Indianapolis Center
Wed 08:44:30 PM 39.7664 -83.8022 44° Northeast 153 176 7,000 146 Climbing Indianapolis Center
Wed 08:45:31 PM 39.7986 -83.7614 44° Northeast 155 178 6,900 49 Descending Indianapolis Center
Wed 08:46:32 PM 39.8339 -83.7183 43° Northeast 164 189 7,100 49 Climbing Indianapolis Center
Wed 08:47:34 PM 39.8678 -83.6767 43° Northeast 166 191 7,000 -49 Descending Indianapolis Center
Wed 08:48:35 PM 39.9006 -83.6328 46° Northeast 165 190 7,000  Level Indianapolis Center
Wed 08:49:37 PM 39.9344 -83.5897 44° Northeast 166 191 7,000  Level Indianapolis Center
Wed 08:50:38 PM 39.9756 -83.5414 42° Northeast 167 192 7,000  Level Indianapolis Center
Wed 08:51:39 PM 40.0103 -83.4997 43° Northeast 167 192 7,000  Level Indianapolis Center
Wed 08:52:41 PM 40.0456 -83.4583 42° Northeast 168 193 7,000  Level Indianapolis Center
Wed 08:53:42 PM 40.0803 -83.4161 43° Northeast 168 193 7,000  Level Indianapolis Center
Wed 08:54:43 PM 40.1139 -83.3733 44° Northeast 167 192 7,000  Level Indianapolis Center
Wed 08:55:45 PM 40.1492 -83.3325 41° Northeast 168 193 7,000  Level Indianapolis Center
Wed 08:56:46 PM 40.1833 -83.2897 44° Northeast 168 193 7,000  Level Indianapolis Center
Wed 08:57:47 PM 40.2164 -83.2469 45° Northeast 166 191 7,000  Level Indianapolis Center
Wed 08:58:49 PM 40.2492 -83.2047 45° Northeast 164 189 7,000  Level Indianapolis Center
Wed 08:59:50 PM 40.2839 -83.1631 42° Northeast 166 191 7,000 -49 Level Indianapolis Center
Wed 09:00:52 PM 40.3161 -83.1197 46° Northeast 165 190 6,900 -49 Descending Indianapolis Center
Wed 09:01:53 PM 40.3492 -83.0772 44° Northeast 165 190 6,900  Level Indianapolis Center
Wed 09:02:54 PM 40.3831 -83.0344 44° Northeast 166 191 6,900  Level Indianapolis Center
Wed 09:03:55 PM 40.4172 -82.9933 42° Northeast 165 190 6,900  Level Indianapolis Center
Wed 09:04:57 PM 40.4517 -82.9522 42° Northeast 166 191 6,900 49 Level Indianapolis Center
Wed 09:05:58 PM 40.4867 -82.9117 41° Northeast 166 191 7,000  Climbing Indianapolis Center
Wed 09:06:59 PM 40.5222 -82.8686 43° Northeast 165 190 6,900  Descending Indianapolis Center
Wed 09:08:00 PM 40.5567 -82.8258 43° Northeast 167 192 7,000  Climbing Indianapolis Center
Wed 09:09:02 PM 40.5894 -82.7825 45° Northeast 166 191 6,900  Descending Indianapolis Center
Wed 09:10:03 PM 40.6233 -82.7408 43° Northeast 165 190 7,000  Climbing Indianapolis Center
Wed 09:11:04 PM 40.6581 -82.6989 42° Northeast 167 192 6,900 -49 Descending Indianapolis Center
Wed 09:12:05 PM 40.6928 -82.6575 42° Northeast 167 192 6,900 125 Level Indianapolis Center
Wed 09:12:40 PM 40.7158 -82.6350 36° Northeast 167 192 7,100 67 Climbing Cleveland Center
Wed 09:13:35 PM 40.7478 -82.5947 44° Northeast 168 193 7,000  Descending Cleveland Center
Wed 09:14:23 PM 40.7775 -82.5628 39° Northeast 167 192 7,100 125 Climbing Cleveland Center

Login

Don't have an account? Register now (free) for customized features, flight alerts, and more!